Time;durP1;ratioP1;P1;durP2;ratioP2;P2;SDS_P1;SDS_P2;PMS_P1;PMS_P2;Temp;Humidity;BMP_temperature;BMP_pressure;BME280_temperature;BME280_humidity;BME280_pressure;Samples;Min_cycle;Max_cycle;Signal;HPM_P1;HPM_P2
2022/08/01 00:02:17;;;;;;;0.50;0.50;;;21.00;97.40;;;;;;5074229;28;20462;-77
2022/08/01 00:04:44;;;;;;;0.70;0.70;;;20.90;97.50;;;;;;5074175;28;20440;-77
2022/08/01 00:07:10;;;;;;;0.70;0.60;;;20.90;96.90;;;;;;5074140;28;20467;-77
2022/08/01 00:09:37;;;;;;;1.73;0.90;;;20.90;97.50;;;;;;5073691;28;20983;-77
2022/08/01 00:12:05;;;;;;;0.60;0.60;;;20.80;97.50;;;;;;5074032;28;20471;-77
2022/08/01 00:14:32;;;;;;;0.63;0.53;;;20.70;97.60;;;;;;5073898;28;20476;-77
2022/08/01 00:16:59;;;;;;;0.70;0.60;;;20.70;97.80;;;;;;5073986;28;20445;-77
2022/08/01 00:19:27;;;;;;;1.27;0.80;;;20.70;96.70;;;;;;5073847;28;20840;-77
2022/08/01 00:21:54;;;;;;;1.30;0.77;;;20.60;97.10;;;;;;5073579;28;20938;-77
2022/08/01 00:24:20;;;;;;;0.70;0.60;;;20.60;97.70;;;;;;5073585;28;20936;-77
2022/08/01 00:26:47;;;;;;;0.90;0.80;;;20.60;97.80;;;;;;5074464;28;20459;-77
2022/08/01 00:29:14;;;;;;;1.50;0.80;;;20.60;97.70;;;;;;5073690;28;20464;-77
2022/08/01 00:31:40;;;;;;;0.50;0.50;;;20.50;97.90;;;;;;5073102;28;20453;-77
2022/08/01 00:34:07;;;;;;;1.77;0.60;;;20.50;98.30;;;;;;5073513;28;20499;-77
2022/08/01 00:36:35;;;;;;;1.43;0.80;;;20.50;98.40;;;;;;5073321;28;20959;-77
2022/08/01 00:39:02;;;;;;;0.47;0.47;;;20.40;98.40;;;;;;5073579;28;20440;-77
2022/08/01 00:41:29;;;;;;;0.60;0.50;;;20.40;98.40;;;;;;5073255;28;20472;-77
2022/08/01 00:43:55;;;;;;;0.90;0.83;;;20.40;98.70;;;;;;5073568;28;20566;-77
2022/08/01 00:46:22;;;;;;;0.47;0.47;;;20.40;99.00;;;;;;5073529;28;20444;-77
2022/08/01 00:48:49;;;;;;;1.07;0.90;;;20.30;99.50;;;;;;5073304;28;20429;-77
2022/08/01 00:51:16;;;;;;;0.93;0.93;;;20.30;99.40;;;;;;5073393;28;20480;-77
2022/08/01 00:53:44;;;;;;;0.70;0.50;;;20.30;99.30;;;;;;5073370;28;20495;-77
2022/08/01 00:56:11;;;;;;;1.33;0.50;;;20.20;99.40;;;;;;5073139;28;20448;-77
2022/08/01 00:58:38;;;;;;;3.37;0.87;;;20.20;99.90;;;;;;5073378;28;20444;-77
2022/08/01 01:01:05;;;;;;;0.40;0.40;;;20.20;99.70;;;;;;5073292;28;20475;-77
2022/08/01 01:03:32;;;;;;;0.70;0.60;;;20.20;99.90;;;;;;5073408;28;20429;-77
2022/08/01 01:06:13;;;;;;;1.53;0.80;;;20.20;99.90;;;;;;5073023;28;20448;-77
2022/08/01 01:08:55;;;;;;;0.50;0.50;;;20.20;99.70;;;;;;5073049;28;20440;-77
2022/08/01 01:11:27;;;;;;;1.10;0.50;;;20.20;99.90;;;;;;5073310;28;20796;-77
2022/08/01 01:14:01;;;;;;;1.50;1.00;;;20.20;99.90;;;;;;5073236;28;20555;-77
2022/08/01 01:16:30;;;;;;;0.97;0.80;;;20.20;99.90;;;;;;5073270;28;20436;-77
2022/08/01 01:19:03;;;;;;;1.53;0.70;;;20.20;99.90;;;;;;5073105;28;20445;-77
2022/08/01 01:21:45;;;;;;;0.60;0.57;;;20.20;99.40;;;;;;5073226;28;20479;-77
2022/08/01 01:24:22;;;;;;;0.50;0.50;;;20.20;99.90;;;;;;5073202;28;20429;-77
2022/08/01 01:26:58;;;;;;;1.10;0.57;;;20.20;99.90;;;;;;5073159;28;20428;-77
2022/08/01 01:29:31;;;;;;;0.60;0.60;;;20.20;99.90;;;;;;5073100;28;20559;-77
2022/08/01 01:32:04;;;;;;;0.70;0.50;;;20.20;99.90;;;;;;5073139;28;20429;-77
2022/08/01 01:34:36;;;;;;;0.83;0.70;;;20.20;99.90;;;;;;5072999;28;20469;-77
2022/08/01 01:37:05;;;;;;;0.70;0.70;;;20.20;99.90;;;;;;5073043;28;20429;-77
2022/08/01 01:39:35;;;;;;;0.80;0.80;;;20.10;99.90;;;;;;5072907;28;20467;-77
2022/08/01 01:42:03;;;;;;;0.77;0.77;;;20.10;99.90;;;;;;5072592;28;20488;-77
2022/08/01 01:44:32;;;;;;;1.33;0.70;;;20.10;99.90;;;;;;5075627;28;20448;-77
2022/08/01 01:47:01;;;;;;;1.50;0.70;;;20.10;99.90;;;;;;5076438;28;20452;-76
2022/08/01 01:49:29;;;;;;;0.60;0.50;;;20.10;99.90;;;;;;5076686;28;20839;-76
2022/08/01 01:51:58;;;;;;;0.50;0.50;;;20.10;99.90;;;;;;5076697;28;20843;-76
2022/08/01 01:54:29;;;;;;;0.50;0.50;;;20.10;99.90;;;;;;5076576;28;20488;-77
2022/08/01 01:56:58;;;;;;;0.70;0.63;;;20.10;99.90;;;;;;5076658;28;20435;-77
2022/08/01 01:59:27;;;;;;;0.60;0.60;;;20.10;99.90;;;;;;5076184;28;20988;-77
2022/08/01 02:01:59;;;;;;;0.50;0.50;;;20.10;99.90;;;;;;5076515;28;20452;-77
2022/08/01 02:04:27;;;;;;;0.80;0.50;;;20.10;99.90;;;;;;5076535;28;20440;-77
2022/08/01 02:06:55;;;;;;;0.77;0.57;;;20.10;99.90;;;;;;5076414;28;20451;-77
2022/08/01 02:09:25;;;;;;;0.83;0.50;;;20.10;99.90;;;;;;5076000;28;21048;-77
2022/08/01 02:11:52;;;;;;;2.33;0.50;;;20.10;99.90;;;;;;5076337;28;20456;-77
2022/08/01 02:14:20;;;;;;;0.70;0.60;;;20.10;99.90;;;;;;5075938;28;20472;-77
2022/08/01 02:16:50;;;;;;;0.57;0.50;;;20.10;99.90;;;;;;5076208;28;20459;-77
2022/08/01 02:19:20;;;;;;;0.63;0.50;;;20.10;99.90;;;;;;5076147;28;20467;-77
2022/08/01 02:21:52;;;;;;;0.73;0.53;;;20.10;99.90;;;;;;5076167;28;20433;-77
2022/08/01 02:24:25;;;;;;;0.50;0.50;;;20.10;99.90;;;;;;5076033;28;20452;-77
2022/08/01 02:26:55;;;;;;;0.67;0.67;;;20.10;99.90;;;;;;5076120;28;20413;-77
2022/08/01 02:29:25;;;;;;;2.03;0.60;;;20.00;99.90;;;;;;5075628;28;20976;-77
2022/08/01 02:31:54;;;;;;;0.50;0.50;;;20.00;99.90;;;;;;5076015;28;20428;-77
2022/08/01 02:34:25;;;;;;;0.70;0.70;;;20.00;99.90;;;;;;5075597;28;20503;-77
2022/08/01 02:36:53;;;;;;;0.73;0.70;;;20.10;99.90;;;;;;5075785;28;20872;-77
2022/08/01 02:39:22;;;;;;;0.60;0.60;;;20.10;99.90;;;;;;5075779;28;20460;-77
2022/08/01 02:41:56;;;;;;;1.13;0.70;;;20.10;99.90;;;;;;5075293;28;20487;-77
2022/08/01 02:44:27;;;;;;;0.60;0.60;;;20.10;99.90;;;;;;5075803;28;20428;-77
2022/08/01 02:47:02;;;;;;;0.63;0.50;;;20.10;99.90;;;;;;5075758;28;20433;-77
2022/08/01 02:49:33;;;;;;;0.70;0.60;;;20.10;99.90;;;;;;5075614;28;20528;-77
2022/08/01 02:52:02;;;;;;;0.40;0.40;;;20.00;99.90;;;;;;5075582;28;20468;-77
2022/08/01 02:54:30;;;;;;;0.73;0.60;;;20.10;99.90;;;;;;5075006;28;20512;-77
2022/08/01 02:56:58;;;;;;;0.70;0.50;;;20.00;99.90;;;;;;5075120;28;20452;-77
2022/08/01 02:59:27;;;;;;;1.73;1.07;;;20.00;99.90;;;;;;5075077;28;20472;-77
2022/08/01 03:01:56;;;;;;;2.03;0.90;;;20.00;99.90;;;;;;5075384;28;20453;-77
2022/08/01 03:04:24;;;;;;;0.53;0.53;;;19.90;99.90;;;;;;5075350;28;20444;-77
2022/08/01 03:06:53;;;;;;;1.13;0.87;;;19.90;99.90;;;;;;5075023;28;20951;-77
2022/08/01 03:09:21;;;;;;;0.97;0.70;;;19.90;99.90;;;;;;5075200;28;20461;-77
2022/08/01 03:11:49;;;;;;;0.50;0.40;;;19.90;99.90;;;;;;5074908;28;20814;-76
2022/08/01 03:14:18;;;;;;;0.40;0.37;;;19.80;99.90;;;;;;5075057;28;20448;-77
2022/08/01 03:16:46;;;;;;;0.93;0.60;;;19.80;99.90;;;;;;5075105;28;20445;-77
2022/08/01 03:19:14;;;;;;;1.67;0.80;;;19.80;99.90;;;;;;5075574;28;20475;-77
2022/08/01 03:21:43;;;;;;;1.50;0.67;;;19.80;99.90;;;;;;5074692;28;20823;-77
2022/08/01 03:24:13;;;;;;;0.93;0.90;;;19.80;99.90;;;;;;5074654;28;20448;-77
2022/08/01 03:26:42;;;;;;;0.87;0.40;;;19.80;99.90;;;;;;5074641;28;20951;-77
2022/08/01 03:29:13;;;;;;;0.50;0.50;;;19.70;99.90;;;;;;5074439;28;20940;-77
2022/08/01 03:31:43;;;;;;;0.83;0.83;;;19.70;99.90;;;;;;5074521;28;20433;-77
2022/08/01 03:34:10;;;;;;;0.67;0.57;;;19.70;99.90;;;;;;5074724;28;20429;-77
2022/08/01 03:36:46;;;;;;;0.50;0.50;;;19.70;99.90;;;;;;5074709;28;20444;-77
2022/08/01 03:39:17;;;;;;;0.47;0.47;;;19.70;99.90;;;;;;5074620;28;20483;-77
2022/08/01 03:41:49;;;;;;;0.83;0.50;;;19.70;99.90;;;;;;5074154;28;20481;-77
2022/08/01 03:44:21;;;;;;;0.67;0.60;;;19.60;99.90;;;;;;5074644;28;20429;-77
2022/08/01 03:46:50;;;;;;;0.70;0.40;;;19.60;99.90;;;;;;5074583;28;20436;-77
2022/08/01 03:49:20;;;;;;;0.50;0.40;;;19.60;99.90;;;;;;5074437;28;20469;-77
2022/08/01 03:51:49;;;;;;;0.70;0.60;;;19.60;99.90;;;;;;5074513;28;20429;-77
2022/08/01 03:54:23;;;;;;;0.90;0.70;;;19.60;99.90;;;;;;5074295;28;20526;-77
2022/08/01 03:56:51;;;;;;;0.70;0.60;;;19.50;99.90;;;;;;5074388;28;20433;-77
2022/08/01 03:59:19;;;;;;;0.60;0.50;;;19.50;99.90;;;;;;5074201;28;20481;-77
2022/08/01 04:01:48;;;;;;;1.57;0.60;;;19.50;99.90;;;;;;5074260;28;20445;-77
2022/08/01 04:04:15;;;;;;;1.07;0.77;;;19.50;99.90;;;;;;5073869;28;20932;-77
2022/08/01 04:06:44;;;;;;;1.13;0.60;;;19.50;99.90;;;;;;5074002;28;20445;-77
2022/08/01 04:09:11;;;;;;;0.50;0.50;;;19.50;99.90;;;;;;5073992;28;20464;-77
2022/08/01 04:11:40;;;;;;;0.50;0.50;;;19.50;99.90;;;;;;5074037;28;20473;-77
2022/08/01 04:14:07;;;;;;;0.40;0.40;;;19.50;99.90;;;;;;5073952;28;20477;-77
2022/08/01 04:16:34;;;;;;;1.10;0.90;;;19.50;99.90;;;;;;5073857;28;20476;-77
2022/08/01 04:19:01;;;;;;;0.40;0.40;;;19.50;99.90;;;;;;5073593;28;20943;-77
2022/08/01 04:21:31;;;;;;;1.23;0.63;;;19.50;99.90;;;;;;5073544;28;20940;-77
2022/08/01 04:24:03;;;;;;;0.40;0.40;;;19.50;99.90;;;;;;5073849;28;20444;-77
2022/08/01 04:26:32;;;;;;;0.57;0.43;;;19.50;99.90;;;;;;5073576;28;20896;-77
2022/08/01 04:29:04;;;;;;;0.70;0.50;;;19.50;99.90;;;;;;5073685;28;20457;-77
2022/08/01 04:31:32;;;;;;;1.17;0.57;;;19.50;99.90;;;;;;5073734;28;20438;-77
2022/08/01 04:34:00;;;;;;;0.70;0.50;;;19.60;99.90;;;;;;5073639;28;20441;-76
2022/08/01 04:36:29;;;;;;;0.50;0.50;;;19.60;99.90;;;;;;5073629;28;20487;-77
2022/08/01 04:39:00;;;;;;;0.80;0.50;;;19.60;99.90;;;;;;5073512;28;20456;-76
2022/08/01 04:41:27;;;;;;;1.17;0.60;;;19.70;99.90;;;;;;5073148;28;20465;-76
2022/08/01 04:43:55;;;;;;;0.50;0.50;;;19.70;99.90;;;;;;5073595;28;20783;-77
2022/08/01 04:46:23;;;;;;;0.87;0.60;;;19.70;99.90;;;;;;5073515;28;20445;-76
2022/08/01 04:48:51;;;;;;;0.90;0.70;;;19.70;99.90;;;;;;5073463;28;20445;-77
2022/08/01 04:51:21;;;;;;;0.70;0.53;;;19.70;99.90;;;;;;5074199;28;20476;-77
2022/08/01 04:53:50;;;;;;;1.60;0.70;;;19.70;99.90;;;;;;5073494;28;20911;-77
2022/08/01 04:56:17;;;;;;;1.43;0.70;;;19.70;99.90;;;;;;5073109;28;20477;-77
2022/08/01 04:58:44;;;;;;;1.13;0.50;;;19.70;99.90;;;;;;5073355;28;20449;-77
2022/08/01 05:01:11;;;;;;;0.70;0.70;;;19.70;99.90;;;;;;5073283;28;20461;-76
2022/08/01 05:03:40;;;;;;;0.50;0.50;;;19.70;99.90;;;;;;5073335;28;20452;-77
2022/08/01 05:06:07;;;;;;;0.80;0.70;;;19.70;99.90;;;;;;5073282;28;20443;-77
2022/08/01 05:08:34;;;;;;;1.10;0.60;;;19.80;99.90;;;;;;5073301;28;20806;-77
2022/08/01 05:11:01;;;;;;;0.73;0.73;;;19.80;99.90;;;;;;5073175;28;20495;-77
2022/08/01 05:13:27;;;;;;;1.07;0.70;;;19.90;99.90;;;;;;5073097;28;20455;-77
2022/08/01 05:15:54;;;;;;;1.20;0.63;;;19.90;99.90;;;;;;5072829;28;20476;-77
2022/08/01 05:18:21;;;;;;;0.97;0.97;;;19.90;99.90;;;;;;5074092;28;20448;-77
2022/08/01 05:20:49;;;;;;;0.53;0.50;;;20.00;99.90;;;;;;5077276;28;20498;-77
2022/08/01 05:23:16;;;;;;;0.90;0.47;;;20.10;99.90;;;;;;5076976;28;20967;-77
2022/08/01 05:25:43;;;;;;;0.60;0.50;;;20.20;99.90;;;;;;5077225;28;20445;-77
2022/08/01 05:28:09;;;;;;;1.80;0.87;;;20.10;99.90;;;;;;5077172;28;20452;-77
2022/08/01 05:30:36;;;;;;;0.60;0.60;;;20.20;99.90;;;;;;5076782;28;20460;-77
2022/08/01 05:33:03;;;;;;;0.53;0.53;;;20.20;99.90;;;;;;5077098;28;20455;-77
2022/08/01 05:35:30;;;;;;;0.73;0.73;;;20.20;99.90;;;;;;5076950;28;20481;-77
2022/08/01 05:37:58;;;;;;;0.60;0.60;;;20.10;99.90;;;;;;5076600;28;20466;-77
2022/08/01 05:40:25;;;;;;;1.00;0.60;;;20.10;99.90;;;;;;5077303;28;20476;-77
2022/08/01 05:42:51;;;;;;;1.20;0.80;;;20.10;99.90;;;;;;5076631;28;20942;-77
2022/08/01 05:45:18;;;;;;;0.70;0.70;;;20.10;99.90;;;;;;5076890;28;20467;-76
2022/08/01 05:47:45;;;;;;;0.53;0.53;;;20.20;99.90;;;;;;5076811;28;20448;-77
2022/08/01 05:50:12;;;;;;;0.50;0.50;;;20.20;99.90;;;;;;5076660;28;20471;-77
2022/08/01 05:52:38;;;;;;;0.50;0.50;;;20.20;99.90;;;;;;5076321;28;20959;-77
2022/08/01 05:55:09;;;;;;;0.70;0.70;;;20.30;99.90;;;;;;5076553;28;20470;-77
2022/08/01 05:57:35;;;;;;;1.63;0.57;;;20.40;99.90;;;;;;5076639;28;20428;-76
2022/08/01 06:00:03;;;;;;;0.50;0.40;;;20.50;99.90;;;;;;5076203;28;20976;-77
2022/08/01 06:02:29;;;;;;;0.50;0.50;;;20.60;99.90;;;;;;5076546;28;20495;-77
2022/08/01 06:04:56;;;;;;;0.50;0.43;;;20.60;99.90;;;;;;5076497;28;20448;-77
2022/08/01 06:07:23;;;;;;;0.97;0.80;;;20.80;99.90;;;;;;5076432;28;20445;-77
2022/08/01 06:09:49;;;;;;;0.70;0.70;;;20.90;99.90;;;;;;5076378;28;20829;-77
2022/08/01 06:12:17;;;;;;;0.70;0.70;;;21.10;99.90;;;;;;5076914;28;20452;-77
2022/08/01 06:14:44;;;;;;;0.87;0.60;;;21.20;99.90;;;;;;5076011;28;20444;-76
2022/08/01 06:17:11;;;;;;;1.00;0.60;;;21.30;99.90;;;;;;5076186;28;20468;-77
2022/08/01 06:19:37;;;;;;;0.57;0.57;;;21.40;99.90;;;;;;5076138;28;20475;-76
2022/08/01 06:22:04;;;;;;;0.60;0.60;;;21.60;99.90;;;;;;5075871;28;20447;-77
2022/08/01 06:24:31;;;;;;;0.50;0.50;;;21.70;99.90;;;;;;5076107;28;20444;-77
2022/08/01 06:26:58;;;;;;;0.63;0.60;;;21.90;99.90;;;;;;5075846;28;20436;-77
2022/08/01 06:29:26;;;;;;;0.80;0.60;;;22.00;99.90;;;;;;5075199;28;20479;-77
2022/08/01 06:31:52;;;;;;;0.50;0.50;;;22.10;99.90;;;;;;5075412;28;20817;-77
2022/08/01 06:34:20;;;;;;;0.70;0.60;;;22.30;99.90;;;;;;5075951;28;20444;-77
2022/08/01 06:36:47;;;;;;;0.83;0.53;;;22.40;99.90;;;;;;5075841;28;20839;-77
2022/08/01 06:39:14;;;;;;;1.77;0.60;;;22.60;99.90;;;;;;5075842;28;20464;-77
2022/08/01 06:41:42;;;;;;;0.60;0.60;;;22.70;99.90;;;;;;5075460;28;20828;-77
2022/08/01 06:44:08;;;;;;;1.33;0.90;;;22.80;99.90;;;;;;5075770;28;20452;-77
2022/08/01 06:46:36;;;;;;;0.90;0.53;;;23.00;99.90;;;;;;5075817;28;20178;-77
2022/08/01 06:49:03;;;;;;;0.70;0.70;;;23.20;99.90;;;;;;5075529;28;20456;-77
2022/08/01 06:51:30;;;;;;;0.73;0.60;;;23.20;99.90;;;;;;5075617;28;20456;-77
2022/08/01 06:53:57;;;;;;;0.63;0.63;;;23.40;99.90;;;;;;5075603;28;20213;-77
2022/08/01 06:56:23;;;;;;;1.03;0.70;;;23.60;99.90;;;;;;5075536;28;20567;-77
2022/08/01 06:58:50;;;;;;;0.50;0.50;;;23.60;99.90;;;;;;5075498;28;20206;-77
2022/08/01 07:01:17;;;;;;;0.77;0.50;;;23.80;99.90;;;;;;5075382;28;20233;-77
2022/08/01 07:03:45;;;;;;;2.03;1.10;;;23.90;99.90;;;;;;5075398;28;20224;-76
2022/08/01 07:06:12;;;;;;;0.50;0.50;;;24.00;99.90;;;;;;5075282;28;20198;-77
2022/08/01 07:08:39;;;;;;;0.57;0.57;;;24.10;99.90;;;;;;5075344;28;20202;-77
2022/08/01 07:11:05;;;;;;;0.98;0.70;;;24.30;99.90;;;;;;5074934;28;20229;-77
2022/08/01 07:13:33;;;;;;;0.68;0.50;;;24.40;99.90;;;;;;5075258;28;20214;-77
2022/08/01 07:15:59;;;;;;;1.85;0.63;;;24.40;99.90;;;;;;5074817;28;20709;-77
2022/08/01 07:18:26;;;;;;;1.52;0.50;;;24.40;99.90;;;;;;5075162;28;20206;-77
2022/08/01 07:20:54;;;;;;;0.60;0.60;;;24.50;99.90;;;;;;5075067;28;20610;-77
2022/08/01 07:23:21;;;;;;;0.50;0.50;;;24.60;99.90;;;;;;5074768;28;20194;-77
2022/08/01 07:25:50;;;;;;;0.75;0.70;;;24.70;99.90;;;;;;5075117;28;20206;-77
2022/08/01 07:28:17;;;;;;;0.88;0.50;;;24.80;99.90;;;;;;5074633;28;20699;-77
2022/08/01 07:30:44;;;;;;;0.50;0.50;;;24.90;99.90;;;;;;5074546;28;20229;-77
2022/08/01 07:33:11;;;;;;;1.85;0.50;;;25.00;99.90;;;;;;5074868;28;20559;-77
2022/08/01 07:35:38;;;;;;;0.50;0.50;;;25.10;99.90;;;;;;5074404;28;20545;-77
2022/08/01 07:38:06;;;;;;;0.68;0.68;;;25.20;99.90;;;;;;5074719;28;20206;-77
2022/08/01 07:40:32;;;;;;;0.50;0.50;;;25.20;99.90;;;;;;5074273;28;20240;-77
2022/08/01 07:42:59;;;;;;;0.95;0.60;;;25.30;99.90;;;;;;5074384;28;20190;-77
2022/08/01 07:45:26;;;;;;;1.10;0.60;;;25.40;99.90;;;;;;5074581;28;20198;-77
2022/08/01 07:47:53;;;;;;;0.88;0.88;;;25.50;99.90;;;;;;5074579;28;20244;-77
2022/08/01 07:50:20;;;;;;;0.50;0.50;;;25.60;99.90;;;;;;5074481;28;20313;-77
2022/08/01 07:52:47;;;;;;;0.80;0.60;;;25.80;99.90;;;;;;5074459;28;20240;-77
2022/08/01 07:55:15;;;;;;;0.68;0.50;;;25.80;99.90;;;;;;5074468;28;20195;-77
2022/08/01 07:57:41;;;;;;;0.70;0.70;;;25.70;99.90;;;;;;5074270;28;20226;-77
2022/08/01 08:00:09;;;;;;;1.67;0.90;;;25.80;99.90;;;;;;5074275;28;20222;-77
2022/08/01 08:02:36;;;;;;;0.60;0.50;;;26.00;99.90;;;;;;5074246;28;20202;-77
2022/08/01 08:05:04;;;;;;;0.70;0.52;;;26.00;99.90;;;;;;5074225;28;20209;-77
2022/08/01 08:07:31;;;;;;;1.05;0.50;;;26.20;99.90;;;;;;5073837;28;20669;-77
2022/08/01 08:09:58;;;;;;;1.48;0.50;;;26.10;99.90;;;;;;5074047;28;20226;-77
2022/08/01 08:12:26;;;;;;;1.02;0.93;;;26.30;99.90;;;;;;5073754;28;20677;-78
2022/08/01 08:14:53;;;;;;;1.00;0.60;;;26.80;99.90;;;;;;5073664;28;20670;-78
2022/08/01 08:17:19;;;;;;;0.70;0.70;;;27.10;99.90;;;;;;5073910;28;20220;-78
2022/08/01 08:19:46;;;;;;;0.90;0.73;;;27.50;99.90;;;;;;5073918;28;20218;-77
2022/08/01 08:22:13;;;;;;;0.82;0.75;;;27.60;99.90;;;;;;5074408;28;20201;-77
2022/08/01 08:24:40;;;;;;;0.70;0.70;;;27.80;99.90;;;;;;5073557;28;20205;-78
2022/08/01 08:27:07;;;;;;;1.60;0.90;;;27.80;99.90;;;;;;5073839;28;20194;-77
2022/08/01 08:29:35;;;;;;;0.68;0.68;;;27.70;99.90;;;;;;5073699;28;20230;-77
2022/08/01 08:32:02;;;;;;;0.60;0.60;;;27.60;99.90;;;;;;5073762;28;20205;-78
2022/08/01 08:34:29;;;;;;;1.23;0.70;;;27.40;99.90;;;;;;5073404;28;20673;-77
2022/08/01 08:36:57;;;;;;;0.73;0.60;;;27.30;99.90;;;;;;5073192;28;20217;-78
2022/08/01 08:39:24;;;;;;;0.60;0.50;;;27.30;99.80;;;;;;5073253;28;20225;-78
2022/08/01 08:41:51;;;;;;;0.80;0.50;;;27.10;99.90;;;;;;5073178;28;20723;-78
2022/08/01 08:44:19;;;;;;;0.60;0.52;;;27.20;99.90;;;;;;5073247;28;20573;-77
2022/08/01 08:46:50;;;;;;;0.70;0.70;;;27.30;99.90;;;;;;5073595;28;20198;-78
2022/08/01 08:49:19;;;;;;;1.23;0.63;;;27.50;99.90;;;;;;5073510;28;20221;-77
2022/08/01 08:51:49;;;;;;;1.23;0.73;;;27.60;99.20;;;;;;5073503;28;20208;-78
2022/08/01 08:54:17;;;;;;;1.02;0.63;;;27.50;99.20;;;;;;5072733;28;20251;-77
2022/08/01 08:56:44;;;;;;;0.60;0.60;;;27.40;98.80;;;;;;5073373;28;20221;-78
2022/08/01 08:59:14;;;;;;;0.88;0.68;;;27.30;99.40;;;;;;5073355;28;20212;-77
2022/08/01 09:01:40;;;;;;;1.33;0.68;;;27.20;99.30;;;;;;5073395;28;20225;-77
2022/08/01 09:04:09;;;;;;;0.68;0.68;;;27.10;99.90;;;;;;5073360;28;20198;-77
2022/08/01 09:06:36;;;;;;;0.70;0.70;;;27.10;99.90;;;;;;5073069;28;20689;-77
2022/08/01 09:09:04;;;;;;;0.88;0.88;;;27.00;99.90;;;;;;5072925;28;20688;-77
2022/08/01 09:11:31;;;;;;;1.30;0.50;;;26.80;99.90;;;;;;5073369;28;20217;-77
2022/08/01 09:14:06;;;;;;;0.85;0.70;;;26.70;99.90;;;;;;5073243;28;20205;-77
2022/08/01 09:16:33;;;;;;;0.70;0.60;;;26.70;99.90;;;;;;5072904;28;20202;-77
2022/08/01 09:19:15;;;;;;;0.70;0.70;;;26.70;99.90;;;;;;5072875;28;20202;-77
2022/08/01 09:21:57;;;;;;;0.80;0.60;;;26.70;99.20;;;;;;5072906;28;20186;-77
2022/08/01 09:24:26;;;;;;;1.70;0.80;;;26.70;99.40;;;;;;5073258;28;20191;-77
2022/08/01 09:26:54;;;;;;;0.77;0.77;;;26.50;99.30;;;;;;5073122;28;20209;-77
2022/08/01 09:29:22;;;;;;;1.08;0.90;;;26.40;99.60;;;;;;5073069;28;20218;-77
2022/08/01 09:31:49;;;;;;;0.65;0.65;;;26.40;99.90;;;;;;5073111;28;20210;-78
2022/08/01 09:34:25;;;;;;;0.60;0.60;;;26.40;99.90;;;;;;5072770;28;20669;-78
2022/08/01 09:36:55;;;;;;;0.85;0.77;;;26.30;99.90;;;;;;5072991;28;20209;-78
2022/08/01 09:39:24;;;;;;;0.80;0.80;;;26.40;99.40;;;;;;5072976;28;20222;-77
2022/08/01 09:41:51;;;;;;;0.70;0.70;;;26.40;99.30;;;;;;5072552;28;20240;-77
2022/08/01 09:44:20;;;;;;;0.70;0.70;;;26.40;99.90;;;;;;5073076;28;20195;-77
2022/08/01 09:46:54;;;;;;;2.15;0.70;;;26.40;99.90;;;;;;5073028;28;20228;-77
2022/08/01 09:49:33;;;;;;;0.88;0.80;;;26.40;99.90;;;;;;5072720;28;20217;-77
2022/08/01 09:52:12;;;;;;;1.10;0.90;;;26.40;99.90;;;;;;5072931;28;20186;-81
2022/08/01 09:54:39;;;;;;;1.00;0.90;;;26.30;99.90;;;;;;5072980;28;20186;-81
2022/08/01 09:57:12;;;;;;;1.08;0.70;;;26.20;99.90;;;;;;5072765;28;20226;-81
2022/08/01 09:59:41;;;;;;;2.25;1.00;;;26.10;99.90;;;;;;5072442;28;20308;-81
2022/08/01 10:02:10;;;;;;;1.67;0.80;;;26.00;99.90;;;;;;5072502;28;20214;-81
2022/08/01 10:04:38;;;;;;;1.00;0.98;;;25.90;99.90;;;;;;5073634;28;20752;-81
2022/08/01 10:07:06;;;;;;;0.90;0.75;;;25.90;99.90;;;;;;5076433;28;20205;-81
2022/08/01 10:09:34;;;;;;;0.93;0.82;;;26.00;99.90;;;;;;5076410;28;20245;-81
2022/08/01 10:12:02;;;;;;;1.02;0.93;;;26.30;99.90;;;;;;5076448;28;20285;-81
2022/08/01 10:14:30;;;;;;;1.20;0.80;;;26.70;99.90;;;;;;5076323;28;20209;-81
2022/08/01 10:17:00;;;;;;;1.20;0.90;;;27.10;98.60;;;;;;5076275;28;20229;-81
2022/08/01 10:19:28;;;;;;;1.35;0.90;;;27.10;97.70;;;;;;5076210;28;20229;-81
2022/08/01 10:21:58;;;;;;;0.70;0.60;;;27.20;97.90;;;;;;5076257;28;20198;-81
2022/08/01 10:24:26;;;;;;;0.85;0.85;;;27.10;98.50;;;;;;5076228;28;20219;-81
2022/08/01 10:26:59;;;;;;;1.33;0.82;;;27.20;99.20;;;;;;5076073;28;20202;-81
2022/08/01 10:29:27;;;;;;;0.90;0.90;;;27.40;98.40;;;;;;5076050;28;20221;-81
2022/08/01 10:31:54;;;;;;;0.80;0.80;;;27.70;98.40;;;;;;5076021;28;20202;-81
2022/08/01 10:34:22;;;;;;;0.65;0.63;;;27.90;97.50;;;;;;5076006;28;20209;-81
2022/08/01 10:36:49;;;;;;;1.02;0.70;;;27.90;97.50;;;;;;5075848;28;20218;-82
2022/08/01 10:39:19;;;;;;;2.85;1.13;;;27.80;97.10;;;;;;5075517;28;20706;-82
2022/08/01 10:41:47;;;;;;;0.82;0.82;;;27.50;97.60;;;;;;5075616;28;20253;-81
2022/08/01 10:44:14;;;;;;;1.20;0.88;;;27.30;96.70;;;;;;5075763;28;20252;-81
2022/08/01 10:46:47;;;;;;;0.70;0.70;;;27.10;96.60;;;;;;5075522;28;20209;-81
2022/08/01 10:49:17;;;;;;;0.82;0.60;;;26.80;97.30;;;;;;5075729;28;20222;-81
2022/08/01 10:51:45;;;;;;;2.58;0.90;;;26.70;98.30;;;;;;5075679;28;20641;-81
2022/08/01 10:54:14;;;;;;;0.80;0.80;;;26.60;99.10;;;;;;5075664;28;20293;-81
2022/08/01 10:56:44;;;;;;;0.90;0.65;;;26.60;98.20;;;;;;5075145;28;20720;-81
2022/08/01 10:59:16;;;;;;;0.90;0.80;;;26.50;98.20;;;;;;5075201;28;20186;-81
2022/08/01 11:01:42;;;;;;;0.52;0.52;;;26.40;99.40;;;;;;5075198;28;20191;-81
2022/08/01 11:04:11;;;;;;;1.00;0.70;;;26.30;99.90;;;;;;5075472;28;20209;-81
2022/08/01 11:06:50;;;;;;;1.27;0.80;;;26.10;99.90;;;;;;5075374;28;20198;-81
2022/08/01 11:09:30;;;;;;;0.60;0.60;;;26.00;99.90;;;;;;5075284;28;20271;-82
2022/08/01 11:12:05;;;;;;;0.65;0.55;;;26.00;99.90;;;;;;5075342;28;20555;-81
2022/08/01 11:14:33;;;;;;;0.65;0.57;;;26.00;99.90;;;;;;5075267;28;20190;-81
2022/08/01 11:17:33;;;;;;;1.55;0.60;;;26.00;99.80;;;;;;5074305;28;20218;-81
2022/08/01 11:20:11;;;;;;;0.50;0.50;;;26.10;99.90;;;;;;5075119;28;20316;-81
2022/08/01 11:23:23;;;;;;;0.75;0.75;;;26.20;99.40;;;;;;5075118;28;20269;-81
2022/08/01 11:26:10;;;;;;;0.55;0.55;;;26.40;99.10;;;;;;5074992;28;20186;-81
2022/08/01 11:28:39;;;;;;;1.40;1.00;;;26.70;99.90;;;;;;5074955;28;20178;-81
2022/08/01 11:31:34;;;;;;;1.33;0.85;;;27.00;99.90;;;;;;5074483;28;20774;-81
2022/08/01 11:34:01;;;;;;;1.27;0.70;;;27.40;98.60;;;;;;5074838;28;20206;-81
2022/08/01 11:36:28;;;;;;;0.93;0.57;;;27.50;97.60;;;;;;5074798;28;20247;-82
2022/08/01 11:39:18;;;;;;;1.88;0.88;;;27.40;95.80;;;;;;5074213;28;20236;-81
2022/08/01 11:41:46;;;;;;;1.60;0.93;;;27.20;96.50;;;;;;5074220;28;20240;-81
2022/08/01 11:44:22;;;;;;;1.05;0.65;;;27.00;96.80;;;;;;5074289;28;20751;-82
2022/08/01 11:47:00;;;;;;;2.03;0.80;;;26.80;97.20;;;;;;5074298;28;20606;-81
2022/08/01 11:49:45;;;;;;;0.88;0.60;;;26.70;97.60;;;;;;5074442;28;20304;-81
2022/08/01 11:52:13;;;;;;;0.60;0.50;;;26.70;97.90;;;;;;5074482;28;20190;-81
2022/08/01 11:54:42;;;;;;;0.70;0.70;;;26.50;97.70;;;;;;5074422;28;20201;-81
2022/08/01 11:57:11;;;;;;;1.00;0.90;;;26.50;98.00;;;;;;5074256;28;20214;-81
2022/08/01 11:59:45;;;;;;;1.98;0.60;;;26.40;98.10;;;;;;5074216;28;20233;-81
2022/08/01 12:02:20;;;;;;;1.77;0.68;;;26.20;98.70;;;;;;5074271;28;20186;-81
2022/08/01 12:04:52;;;;;;;0.80;0.80;;;26.00;98.90;;;;;;5074235;28;20209;-81
2022/08/01 12:07:20;;;;;;;1.33;0.80;;;25.90;99.90;;;;;;5073892;28;20185;-81
2022/08/01 12:09:47;;;;;;;0.60;0.55;;;25.80;99.50;;;;;;5074059;28;20222;-81
2022/08/01 12:12:17;;;;;;;0.57;0.57;;;25.80;99.50;;;;;;5074071;28;20259;-81
2022/08/01 12:14:46;;;;;;;3.70;0.50;;;26.00;98.80;;;;;;5074090;28;20256;-81
2022/08/01 12:17:14;;;;;;;0.63;0.60;;;26.30;98.00;;;;;;5073921;28;20281;-81
2022/08/01 12:19:41;;;;;;;0.75;0.60;;;26.60;96.60;;;;;;5073742;28;20241;-81
2022/08/01 12:22:13;;;;;;;0.70;0.70;;;26.90;96.40;;;;;;5073584;28;20682;-82
2022/08/01 12:24:42;;;;;;;0.80;0.50;;;27.10;95.40;;;;;;5073876;28;20209;-82
2022/08/01 12:27:10;;;;;;;0.70;0.70;;;27.30;94.90;;;;;;5073727;28;20198;-82
2022/08/01 12:29:39;;;;;;;0.63;0.63;;;27.50;94.10;;;;;;5073384;28;20741;-82
2022/08/01 12:32:22;;;;;;;2.08;0.93;;;27.80;93.80;;;;;;5073476;28;20729;-82
2022/08/01 12:34:50;;;;;;;0.75;0.70;;;27.90;94.10;;;;;;5073885;28;20190;-81
2022/08/01 12:37:17;;;;;;;0.70;0.70;;;27.90;94.50;;;;;;5073316;28;20186;-81
2022/08/01 12:39:45;;;;;;;0.50;0.50;;;27.80;94.60;;;;;;5073318;28;20737;-81
2022/08/01 12:42:12;;;;;;;0.50;0.45;;;27.70;93.80;;;;;;5073231;28;20241;-81
2022/08/01 12:44:41;;;;;;;1.75;0.93;;;27.50;93.50;;;;;;5073599;28;20209;-81
2022/08/01 12:47:09;;;;;;;0.95;0.60;;;27.30;94.10;;;;;;5073291;28;20198;-82
2022/08/01 12:49:37;;;;;;;0.60;0.60;;;27.10;94.10;;;;;;5073492;28;20221;-81
2022/08/01 12:52:05;;;;;;;0.50;0.50;;;27.00;94.50;;;;;;5073536;28;20206;-82
2022/08/01 12:54:31;;;;;;;0.60;0.60;;;27.00;94.50;;;;;;5073168;28;20209;-82
2022/08/01 12:56:58;;;;;;;0.45;0.45;;;27.10;94.80;;;;;;5073405;28;20202;-81
2022/08/01 12:59:27;;;;;;;0.75;0.60;;;27.10;94.60;;;;;;5073273;28;20230;-81